<?xml version="1.0" encoding="UTF-8" standalone="no" ?>
<gpx xmlns="http://www.topografix.com/GPX/1/1" xmlns:xsi="http://www.w3.org/2001/XMLSchema-instance" xsi:schemaLocation="http://www.topografix.com/GPX/1/1 http://www.topografix.com/GPX/1/1/gpx.xsd" version="1.1" creator="VisuGPX - https://www.visugpx.com">
  <metadata>
    <name>GR8S2_BarreMontsLesSables</name>
    <desc><![CDATA[gnerando idor: 12420232_12420290_12420300_12420307]]></desc>
  </metadata>
  <trk>
    <name><![CDATA[GR8S2J3_PetitPontTantouille_21.4km-12420300]]></name>
    <extensions>
      <line xmlns="http://www.topografix.com/GPX/gpx_style/0/2">
        <color>00FFFF</color>
        <width>4</width>
      </line>
    </extensions>
    <trkseg>
      <trkpt lat="46.66133" lon="-1.90577">
        <ele>4</ele>
        <time>2023-10-30T14:31:51Z</time>
      </trkpt>
      <trkpt lat="46.66115" lon="-1.90605">
        <ele>4</ele>
        <time>2023-10-30T14:32:26Z</time>
      </trkpt>
      <trkpt lat="46.65989" lon="-1.90695">
        <ele>6</ele>
        <time>2023-10-30T14:35:33Z</time>
      </trkpt>
      <trkpt lat="46.65912" lon="-1.90707">
        <ele>7</ele>
        <time>2023-10-30T14:37:17Z</time>
      </trkpt>
      <trkpt lat="46.6578" lon="-1.90862">
        <ele>9</ele>
        <time>2023-10-30T14:41:03Z</time>
      </trkpt>
      <trkpt lat="46.65528" lon="-1.90693">
        <ele>10</ele>
        <time>2023-10-30T14:47:13Z</time>
      </trkpt>
      <trkpt lat="46.65456" lon="-1.90671">
        <ele>10</ele>
        <time>2023-10-30T14:48:51Z</time>
      </trkpt>
      <trkpt lat="46.65317" lon="-1.90729">
        <ele>5</ele>
        <time>2023-10-30T14:52:04Z</time>
      </trkpt>
      <trkpt lat="46.65283" lon="-1.90727">
        <ele>6</ele>
        <time>2023-10-30T14:52:50Z</time>
      </trkpt>
      <trkpt lat="46.65233" lon="-1.90703">
        <ele>7</ele>
        <time>2023-10-30T14:54:00Z</time>
      </trkpt>
      <trkpt lat="46.65183" lon="-1.90714">
        <ele>6</ele>
        <time>2023-10-30T14:55:07Z</time>
      </trkpt>
      <trkpt lat="46.65142" lon="-1.90699">
        <ele>5</ele>
        <time>2023-10-30T14:56:04Z</time>
      </trkpt>
      <trkpt lat="46.65098" lon="-1.90656">
        <ele>4</ele>
        <time>2023-10-30T14:57:15Z</time>
      </trkpt>
      <trkpt lat="46.65055" lon="-1.90592">
        <ele>5</ele>
        <time>2023-10-30T14:58:37Z</time>
      </trkpt>
      <trkpt lat="46.64841" lon="-1.90399">
        <ele>5</ele>
        <time>2023-10-30T15:04:12Z</time>
      </trkpt>
      <trkpt lat="46.64794" lon="-1.90323">
        <ele>7</ele>
        <time>2023-10-30T15:05:46Z</time>
      </trkpt>
      <trkpt lat="46.64737" lon="-1.90201">
        <ele>9</ele>
        <time>2023-10-30T15:08:01Z</time>
      </trkpt>
      <trkpt lat="46.64703" lon="-1.90141">
        <ele>9</ele>
        <time>2023-10-30T15:09:13Z</time>
      </trkpt>
      <trkpt lat="46.64641" lon="-1.90089">
        <ele>9</ele>
        <time>2023-10-30T15:10:48Z</time>
      </trkpt>
      <trkpt lat="46.64597" lon="-1.89997">
        <ele>11</ele>
        <time>2023-10-30T15:12:31Z</time>
      </trkpt>
      <trkpt lat="46.6452" lon="-1.89956">
        <ele>10</ele>
        <time>2023-10-30T15:14:20Z</time>
      </trkpt>
      <trkpt lat="46.6443" lon="-1.89972">
        <ele>8</ele>
        <time>2023-10-30T15:16:21Z</time>
      </trkpt>
      <trkpt lat="46.64441" lon="-1.89774">
        <ele>12</ele>
        <time>2023-10-30T15:19:23Z</time>
      </trkpt>
      <trkpt lat="46.64392" lon="-1.89684">
        <ele>13</ele>
        <time>2023-10-30T15:21:08Z</time>
      </trkpt>
      <trkpt lat="46.64338" lon="-1.89536">
        <ele>15</ele>
        <time>2023-10-30T15:23:42Z</time>
      </trkpt>
      <trkpt lat="46.64292" lon="-1.89484">
        <ele>14</ele>
        <time>2023-10-30T15:25:00Z</time>
      </trkpt>
      <trkpt lat="46.64195" lon="-1.89444">
        <ele>12</ele>
        <time>2023-10-30T15:27:14Z</time>
      </trkpt>
      <trkpt lat="46.6408" lon="-1.89431">
        <ele>10</ele>
        <time>2023-10-30T15:29:48Z</time>
      </trkpt>
      <trkpt lat="46.63953" lon="-1.89448">
        <ele>5</ele>
        <time>2023-10-30T15:32:38Z</time>
      </trkpt>
      <trkpt lat="46.63921" lon="-1.89429">
        <ele>5</ele>
        <time>2023-10-30T15:33:24Z</time>
      </trkpt>
      <trkpt lat="46.63853" lon="-1.89324">
        <ele>7</ele>
        <time>2023-10-30T15:35:37Z</time>
      </trkpt>
      <trkpt lat="46.63797" lon="-1.89246">
        <ele>8</ele>
        <time>2023-10-30T15:37:20Z</time>
      </trkpt>
      <trkpt lat="46.63554" lon="-1.89079">
        <ele>7</ele>
        <time>2023-10-30T15:43:19Z</time>
      </trkpt>
      <trkpt lat="46.63412" lon="-1.88768">
        <ele>7</ele>
        <time>2023-10-30T15:49:01Z</time>
      </trkpt>
      <trkpt lat="46.63381" lon="-1.88731">
        <ele>7</ele>
        <time>2023-10-30T15:49:54Z</time>
      </trkpt>
      <trkpt lat="46.63325" lon="-1.88682">
        <ele>6</ele>
        <time>2023-10-30T15:51:22Z</time>
      </trkpt>
      <trkpt lat="46.63212" lon="-1.88482">
        <ele>5</ele>
        <time>2023-10-30T15:55:19Z</time>
      </trkpt>
      <trkpt lat="46.63156" lon="-1.88161">
        <ele>9</ele>
        <time>2023-10-30T16:00:22Z</time>
      </trkpt>
      <trkpt lat="46.63127" lon="-1.88081">
        <ele>9</ele>
        <time>2023-10-30T16:01:45Z</time>
      </trkpt>
      <trkpt lat="46.63066" lon="-1.87993">
        <ele>11</ele>
        <time>2023-10-30T16:03:40Z</time>
      </trkpt>
      <trkpt lat="46.62976" lon="-1.87733">
        <ele>9</ele>
        <time>2023-10-30T16:08:07Z</time>
      </trkpt>
      <trkpt lat="46.6287" lon="-1.87547">
        <ele>8</ele>
        <time>2023-10-30T16:11:48Z</time>
      </trkpt>
      <trkpt lat="46.62835" lon="-1.87506">
        <ele>9</ele>
        <time>2023-10-30T16:12:48Z</time>
      </trkpt>
      <trkpt lat="46.62746" lon="-1.87459">
        <ele>8</ele>
        <time>2023-10-30T16:14:54Z</time>
      </trkpt>
      <trkpt lat="46.62676" lon="-1.87379">
        <ele>7</ele>
        <time>2023-10-30T16:16:53Z</time>
      </trkpt>
      <trkpt lat="46.62441" lon="-1.87369">
        <ele>6</ele>
        <time>2023-10-30T16:22:07Z</time>
      </trkpt>
      <trkpt lat="46.62331" lon="-1.87332">
        <ele>8</ele>
        <time>2023-10-30T16:24:38Z</time>
      </trkpt>
      <trkpt lat="46.62164" lon="-1.87212">
        <ele>8</ele>
        <time>2023-10-30T16:28:46Z</time>
      </trkpt>
      <trkpt lat="46.62107" lon="-1.87223">
        <ele>7</ele>
        <time>2023-10-30T16:30:03Z</time>
      </trkpt>
      <trkpt lat="46.62046" lon="-1.87246">
        <ele>6</ele>
        <time>2023-10-30T16:31:27Z</time>
      </trkpt>
      <trkpt lat="46.61911" lon="-1.87154">
        <ele>7</ele>
        <time>2023-10-30T16:34:46Z</time>
      </trkpt>
      <trkpt lat="46.61783" lon="-1.87043">
        <ele>7</ele>
        <time>2023-10-30T16:38:05Z</time>
      </trkpt>
      <trkpt lat="46.61696" lon="-1.86944">
        <ele>5</ele>
        <time>2023-10-30T16:40:32Z</time>
      </trkpt>
      <trkpt lat="46.61671" lon="-1.86877">
        <ele>5</ele>
        <time>2023-10-30T16:41:42Z</time>
      </trkpt>
      <trkpt lat="46.61629" lon="-1.86671">
        <ele>4</ele>
        <time>2023-10-30T16:44:59Z</time>
      </trkpt>
      <trkpt lat="46.61644" lon="-1.86476">
        <ele>7</ele>
        <time>2023-10-30T16:47:59Z</time>
      </trkpt>
      <trkpt lat="46.61668" lon="-1.86422">
        <ele>9</ele>
        <time>2023-10-30T16:48:58Z</time>
      </trkpt>
      <trkpt lat="46.6164" lon="-1.86341">
        <ele>7</ele>
        <time>2023-10-30T16:50:21Z</time>
      </trkpt>
      <trkpt lat="46.61582" lon="-1.86375">
        <ele>5</ele>
        <time>2023-10-30T16:51:44Z</time>
      </trkpt>
      <trkpt lat="46.61526" lon="-1.86307">
        <ele>6</ele>
        <time>2023-10-30T16:53:22Z</time>
      </trkpt>
      <trkpt lat="46.61419" lon="-1.86223">
        <ele>7</ele>
        <time>2023-10-30T16:56:04Z</time>
      </trkpt>
      <trkpt lat="46.61268" lon="-1.86017">
        <ele>5</ele>
        <time>2023-10-30T17:00:40Z</time>
      </trkpt>
      <trkpt lat="46.61237" lon="-1.85807">
        <ele>10</ele>
        <time>2023-10-30T17:03:57Z</time>
      </trkpt>
      <trkpt lat="46.61199" lon="-1.85691">
        <ele>12</ele>
        <time>2023-10-30T17:05:55Z</time>
      </trkpt>
      <trkpt lat="46.61119" lon="-1.85605">
        <ele>11</ele>
        <time>2023-10-30T17:08:07Z</time>
      </trkpt>
      <trkpt lat="46.61072" lon="-1.85465">
        <ele>13</ele>
        <time>2023-10-30T17:10:30Z</time>
      </trkpt>
      <trkpt lat="46.61103" lon="-1.85459">
        <ele>13</ele>
        <time>2023-10-30T17:11:12Z</time>
      </trkpt>
      <trkpt lat="46.61124" lon="-1.85341">
        <ele>14</ele>
        <time>2023-10-30T17:13:04Z</time>
      </trkpt>
      <trkpt lat="46.61137" lon="-1.85021">
        <ele>21</ele>
        <time>2023-10-30T17:17:58Z</time>
      </trkpt>
      <trkpt lat="46.61122" lon="-1.84867">
        <ele>21</ele>
        <time>2023-10-30T17:20:20Z</time>
      </trkpt>
      <trkpt lat="46.61103" lon="-1.84796">
        <ele>21</ele>
        <time>2023-10-30T17:21:30Z</time>
      </trkpt>
      <trkpt lat="46.61074" lon="-1.84742">
        <ele>20</ele>
        <time>2023-10-30T17:22:33Z</time>
      </trkpt>
      <trkpt lat="46.61025" lon="-1.84459">
        <ele>8</ele>
        <time>2023-10-30T17:27:00Z</time>
      </trkpt>
      <trkpt lat="46.60984" lon="-1.84412">
        <ele>7</ele>
        <time>2023-10-30T17:28:10Z</time>
      </trkpt>
      <trkpt lat="46.61056" lon="-1.84262">
        <ele>7</ele>
        <time>2023-10-30T17:30:58Z</time>
      </trkpt>
      <trkpt lat="46.61018" lon="-1.84176">
        <ele>12</ele>
        <time>2023-10-30T17:32:31Z</time>
      </trkpt>
      <trkpt lat="46.61009" lon="-1.84129">
        <ele>15</ele>
        <time>2023-10-30T17:33:16Z</time>
      </trkpt>
      <trkpt lat="46.60988" lon="-1.8409">
        <ele>16</ele>
        <time>2023-10-30T17:34:02Z</time>
      </trkpt>
      <trkpt lat="46.60956" lon="-1.84073">
        <ele>16</ele>
        <time>2023-10-30T17:34:47Z</time>
      </trkpt>
      <trkpt lat="46.60947" lon="-1.83987">
        <ele>20</ele>
        <time>2023-10-30T17:36:07Z</time>
      </trkpt>
      <trkpt lat="46.60917" lon="-1.83987">
        <ele>20</ele>
        <time>2023-10-30T17:36:47Z</time>
      </trkpt>
      <trkpt lat="46.60853" lon="-1.84028">
        <ele>18</ele>
        <time>2023-10-30T17:38:20Z</time>
      </trkpt>
      <trkpt lat="46.60879" lon="-1.84165">
        <ele>13</ele>
        <time>2023-10-30T17:40:30Z</time>
      </trkpt>
      <trkpt lat="46.60861" lon="-1.84202">
        <ele>12</ele>
        <time>2023-10-30T17:41:12Z</time>
      </trkpt>
      <trkpt lat="46.60829" lon="-1.84223">
        <ele>11</ele>
        <time>2023-10-30T17:41:59Z</time>
      </trkpt>
      <trkpt lat="46.60791" lon="-1.84298">
        <ele>8</ele>
        <time>2023-10-30T17:43:24Z</time>
      </trkpt>
      <trkpt lat="46.60715" lon="-1.84324">
        <ele>5</ele>
        <time>2023-10-30T17:45:08Z</time>
      </trkpt>
      <trkpt lat="46.60628" lon="-1.84326">
        <ele>5</ele>
        <time>2023-10-30T17:47:05Z</time>
      </trkpt>
      <trkpt lat="46.60564" lon="-1.84302">
        <ele>5</ele>
        <time>2023-10-30T17:48:33Z</time>
      </trkpt>
      <trkpt lat="46.60503" lon="-1.8432">
        <ele>8</ele>
        <time>2023-10-30T17:49:56Z</time>
      </trkpt>
      <trkpt lat="46.60379" lon="-1.84377">
        <ele>5</ele>
        <time>2023-10-30T17:52:49Z</time>
      </trkpt>
      <trkpt lat="46.60382" lon="-1.84444">
        <ele>5</ele>
        <time>2023-10-30T17:53:51Z</time>
      </trkpt>
      <trkpt lat="46.60369" lon="-1.84487">
        <ele>5</ele>
        <time>2023-10-30T17:54:34Z</time>
      </trkpt>
      <trkpt lat="46.60303" lon="-1.84502">
        <ele>6</ele>
        <time>2023-10-30T17:56:03Z</time>
      </trkpt>
      <trkpt lat="46.60313" lon="-1.84594">
        <ele>6</ele>
        <time>2023-10-30T17:57:29Z</time>
      </trkpt>
      <trkpt lat="46.60236" lon="-1.84633">
        <ele>9</ele>
        <time>2023-10-30T17:59:17Z</time>
      </trkpt>
      <trkpt lat="46.60253" lon="-1.84753">
        <ele>8</ele>
        <time>2023-10-30T18:01:10Z</time>
      </trkpt>
      <trkpt lat="46.5999" lon="-1.84725">
        <ele>5</ele>
        <time>2023-10-30T18:07:02Z</time>
      </trkpt>
      <trkpt lat="46.59912" lon="-1.84669">
        <ele>6</ele>
        <time>2023-10-30T18:08:58Z</time>
      </trkpt>
      <trkpt lat="46.59565" lon="-1.84813">
        <ele>2</ele>
        <time>2023-10-30T18:16:59Z</time>
      </trkpt>
      <trkpt lat="46.59486" lon="-1.84676">
        <ele>1</ele>
        <time>2023-10-30T18:19:43Z</time>
      </trkpt>
      <trkpt lat="46.59434" lon="-1.84665">
        <ele>2</ele>
        <time>2023-10-30T18:20:53Z</time>
      </trkpt>
      <trkpt lat="46.59386" lon="-1.84695">
        <ele>3</ele>
        <time>2023-10-30T18:22:03Z</time>
      </trkpt>
      <trkpt lat="46.59362" lon="-1.84783">
        <ele>3</ele>
        <time>2023-10-30T18:23:30Z</time>
      </trkpt>
      <trkpt lat="46.59372" lon="-1.84912">
        <ele>3</ele>
        <time>2023-10-30T18:25:29Z</time>
      </trkpt>
      <trkpt lat="46.59353" lon="-1.84955">
        <ele>3</ele>
        <time>2023-10-30T18:26:16Z</time>
      </trkpt>
      <trkpt lat="46.58962" lon="-1.84822">
        <ele>4</ele>
        <time>2023-10-30T18:35:12Z</time>
      </trkpt>
      <trkpt lat="46.58923" lon="-1.84764">
        <ele>3</ele>
        <time>2023-10-30T18:36:26Z</time>
      </trkpt>
      <trkpt lat="46.5888" lon="-1.84789">
        <ele>3</ele>
        <time>2023-10-30T18:37:28Z</time>
      </trkpt>
      <trkpt lat="46.58839" lon="-1.8477">
        <ele>4</ele>
        <time>2023-10-30T18:38:25Z</time>
      </trkpt>
      <trkpt lat="46.58657" lon="-1.84626">
        <ele>1</ele>
        <time>2023-10-30T18:43:02Z</time>
      </trkpt>
      <trkpt lat="46.58585" lon="-1.84671">
        <ele>1</ele>
        <time>2023-10-30T18:44:46Z</time>
      </trkpt>
      <trkpt lat="46.58554" lon="-1.84706">
        <ele>3</ele>
        <time>2023-10-30T18:45:39Z</time>
      </trkpt>
      <trkpt lat="46.58524" lon="-1.84671">
        <ele>2</ele>
        <time>2023-10-30T18:46:30Z</time>
      </trkpt>
      <trkpt lat="46.58454" lon="-1.84747">
        <ele>1</ele>
        <time>2023-10-30T18:48:26Z</time>
      </trkpt>
      <trkpt lat="46.58165" lon="-1.84624">
        <ele>6</ele>
        <time>2023-10-30T18:55:08Z</time>
      </trkpt>
      <trkpt lat="46.582" lon="-1.84485">
        <ele>6</ele>
        <time>2023-10-30T18:57:24Z</time>
      </trkpt>
      <trkpt lat="46.58271" lon="-1.84384">
        <ele>4</ele>
        <time>2023-10-30T18:59:37Z</time>
      </trkpt>
      <trkpt lat="46.58314" lon="-1.84227">
        <ele>8</ele>
        <time>2023-10-30T19:02:12Z</time>
      </trkpt>
      <trkpt lat="46.58361" lon="-1.84189">
        <ele>8</ele>
        <time>2023-10-30T19:03:23Z</time>
      </trkpt>
      <trkpt lat="46.58406" lon="-1.84107">
        <ele>8</ele>
        <time>2023-10-30T19:05:00Z</time>
      </trkpt>
      <trkpt lat="46.58547" lon="-1.83981">
        <ele>8</ele>
        <time>2023-10-30T19:08:40Z</time>
      </trkpt>
      <trkpt lat="46.58532" lon="-1.8392">
        <ele>11</ele>
        <time>2023-10-30T19:09:40Z</time>
      </trkpt>
      <trkpt lat="46.5852" lon="-1.83835">
        <ele>11</ele>
        <time>2023-10-30T19:10:59Z</time>
      </trkpt>
      <trkpt lat="46.58501" lon="-1.83781">
        <ele>12</ele>
        <time>2023-10-30T19:11:55Z</time>
      </trkpt>
      <trkpt lat="46.58464" lon="-1.83751">
        <ele>12</ele>
        <time>2023-10-30T19:12:52Z</time>
      </trkpt>
      <trkpt lat="46.58403" lon="-1.83757">
        <ele>12</ele>
        <time>2023-10-30T19:14:13Z</time>
      </trkpt>
      <trkpt lat="46.58368" lon="-1.83781">
        <ele>13</ele>
        <time>2023-10-30T19:15:05Z</time>
      </trkpt>
      <trkpt lat="46.58314" lon="-1.83781">
        <ele>13</ele>
        <time>2023-10-30T19:16:17Z</time>
      </trkpt>
      <trkpt lat="46.5828" lon="-1.83805">
        <ele>12</ele>
        <time>2023-10-30T19:17:07Z</time>
      </trkpt>
      <trkpt lat="46.58203" lon="-1.83813">
        <ele>13</ele>
        <time>2023-10-30T19:18:50Z</time>
      </trkpt>
      <trkpt lat="46.58163" lon="-1.83717">
        <ele>14</ele>
        <time>2023-10-30T19:20:33Z</time>
      </trkpt>
      <trkpt lat="46.58117" lon="-1.83751">
        <ele>15</ele>
        <time>2023-10-30T19:21:42Z</time>
      </trkpt>
      <trkpt lat="46.58054" lon="-1.83661">
        <ele>17</ele>
        <time>2023-10-30T19:23:40Z</time>
      </trkpt>
      <trkpt lat="46.58035" lon="-1.83517">
        <ele>17</ele>
        <time>2023-10-30T19:25:54Z</time>
      </trkpt>
      <trkpt lat="46.58013" lon="-1.83455">
        <ele>18</ele>
        <time>2023-10-30T19:26:58Z</time>
      </trkpt>
      <trkpt lat="46.57973" lon="-1.83414">
        <ele>18</ele>
        <time>2023-10-30T19:28:04Z</time>
      </trkpt>
      <trkpt lat="46.57918" lon="-1.83242">
        <ele>14</ele>
        <time>2023-10-30T19:30:58Z</time>
      </trkpt>
      <trkpt lat="46.57896" lon="-1.83197">
        <ele>14</ele>
        <time>2023-10-30T19:31:48Z</time>
      </trkpt>
      <trkpt lat="46.57865" lon="-1.83182">
        <ele>14</ele>
        <time>2023-10-30T19:32:32Z</time>
      </trkpt>
      <trkpt lat="46.57843" lon="-1.83099">
        <ele>15</ele>
        <time>2023-10-30T19:33:54Z</time>
      </trkpt>
      <trkpt lat="46.57821" lon="-1.83154">
        <ele>14</ele>
        <time>2023-10-30T19:34:52Z</time>
      </trkpt>
      <trkpt lat="46.5778" lon="-1.83215">
        <ele>16</ele>
        <time>2023-10-30T19:36:10Z</time>
      </trkpt>
      <trkpt lat="46.57752" lon="-1.83305">
        <ele>17</ele>
        <time>2023-10-30T19:37:41Z</time>
      </trkpt>
      <trkpt lat="46.57694" lon="-1.83414">
        <ele>17</ele>
        <time>2023-10-30T19:39:47Z</time>
      </trkpt>
      <trkpt lat="46.57635" lon="-1.8344">
        <ele>16</ele>
        <time>2023-10-30T19:41:10Z</time>
      </trkpt>
      <trkpt lat="46.57586" lon="-1.83483">
        <ele>15</ele>
        <time>2023-10-30T19:42:26Z</time>
      </trkpt>
      <trkpt lat="46.57541" lon="-1.83502">
        <ele>14</ele>
        <time>2023-10-30T19:43:28Z</time>
      </trkpt>
      <trkpt lat="46.57594" lon="-1.83302">
        <ele>15</ele>
        <time>2023-10-30T19:46:45Z</time>
      </trkpt>
      <trkpt lat="46.57573" lon="-1.8327">
        <ele>15</ele>
        <time>2023-10-30T19:47:26Z</time>
      </trkpt>
      <trkpt lat="46.57468" lon="-1.83288">
        <ele>14</ele>
        <time>2023-10-30T19:49:47Z</time>
      </trkpt>
      <trkpt lat="46.57412" lon="-1.83236">
        <ele>14</ele>
        <time>2023-10-30T19:51:15Z</time>
      </trkpt>
      <trkpt lat="46.57352" lon="-1.83225">
        <ele>14</ele>
        <time>2023-10-30T19:52:36Z</time>
      </trkpt>
      <trkpt lat="46.57274" lon="-1.83139">
        <ele>13</ele>
        <time>2023-10-30T19:54:47Z</time>
      </trkpt>
      <trkpt lat="46.57181" lon="-1.8309">
        <ele>16</ele>
        <time>2023-10-30T19:56:59Z</time>
      </trkpt>
      <trkpt lat="46.57129" lon="-1.83019">
        <ele>18</ele>
        <time>2023-10-30T19:58:34Z</time>
      </trkpt>
      <trkpt lat="46.57101" lon="-1.82929">
        <ele>15</ele>
        <time>2023-10-30T20:00:04Z</time>
      </trkpt>
      <trkpt lat="46.57106" lon="-1.82854">
        <ele>15</ele>
        <time>2023-10-30T20:01:14Z</time>
      </trkpt>
      <trkpt lat="46.57145" lon="-1.82755">
        <ele>16</ele>
        <time>2023-10-30T20:02:58Z</time>
      </trkpt>
      <trkpt lat="46.57039" lon="-1.82706">
        <ele>14</ele>
        <time>2023-10-30T20:05:27Z</time>
      </trkpt>
      <trkpt lat="46.56945" lon="-1.82762">
        <ele>12</ele>
        <time>2023-10-30T20:07:42Z</time>
      </trkpt>
      <trkpt lat="46.56889" lon="-1.82742">
        <ele>12</ele>
        <time>2023-10-30T20:08:59Z</time>
      </trkpt>
      <trkpt lat="46.5683" lon="-1.82712">
        <ele>12</ele>
        <time>2023-10-30T20:10:23Z</time>
      </trkpt>
      <trkpt lat="46.568" lon="-1.82734">
        <ele>11</ele>
        <time>2023-10-30T20:11:07Z</time>
      </trkpt>
      <trkpt lat="46.56641" lon="-1.82974">
        <ele>14</ele>
        <time>2023-10-30T20:16:13Z</time>
      </trkpt>
      <trkpt lat="46.5661" lon="-1.83049">
        <ele>15</ele>
        <time>2023-10-30T20:17:34Z</time>
      </trkpt>
      <trkpt lat="46.56588" lon="-1.82893">
        <ele>15</ele>
        <time>2023-10-30T20:20:00Z</time>
      </trkpt>
      <trkpt lat="46.56524" lon="-1.82757">
        <ele>19</ele>
        <time>2023-10-30T20:22:31Z</time>
      </trkpt>
      <trkpt lat="46.56513" lon="-1.82601">
        <ele>18</ele>
        <time>2023-10-30T20:24:55Z</time>
      </trkpt>
      <trkpt lat="46.56459" lon="-1.82455">
        <ele>15</ele>
        <time>2023-10-30T20:27:27Z</time>
      </trkpt>
      <trkpt lat="46.56448" lon="-1.8232">
        <ele>15</ele>
        <time>2023-10-30T20:29:32Z</time>
      </trkpt>
      <trkpt lat="46.56383" lon="-1.82184">
        <ele>16</ele>
        <time>2023-10-30T20:32:03Z</time>
      </trkpt>
      <trkpt lat="46.56316" lon="-1.82148">
        <ele>16</ele>
        <time>2023-10-30T20:33:39Z</time>
      </trkpt>
      <trkpt lat="46.56265" lon="-1.82142">
        <ele>16</ele>
        <time>2023-10-30T20:34:47Z</time>
      </trkpt>
      <trkpt lat="46.56206" lon="-1.82247">
        <ele>11</ele>
        <time>2023-10-30T20:36:52Z</time>
      </trkpt>
      <trkpt lat="46.56179" lon="-1.82343">
        <ele>11</ele>
        <time>2023-10-30T20:38:27Z</time>
      </trkpt>
      <trkpt lat="46.56135" lon="-1.82408">
        <ele>10</ele>
        <time>2023-10-30T20:39:50Z</time>
      </trkpt>
      <trkpt lat="46.56101" lon="-1.82481">
        <ele>10</ele>
        <time>2023-10-30T20:41:11Z</time>
      </trkpt>
      <trkpt lat="46.56021" lon="-1.82549">
        <ele>11</ele>
        <time>2023-10-30T20:43:15Z</time>
      </trkpt>
      <trkpt lat="46.55968" lon="-1.8262">
        <ele>12</ele>
        <time>2023-10-30T20:44:51Z</time>
      </trkpt>
      <trkpt lat="46.55916" lon="-1.82624">
        <ele>11</ele>
        <time>2023-10-30T20:46:01Z</time>
      </trkpt>
      <trkpt lat="46.5586" lon="-1.82575">
        <ele>12</ele>
        <time>2023-10-30T20:47:28Z</time>
      </trkpt>
      <trkpt lat="46.55824" lon="-1.82564">
        <ele>12</ele>
        <time>2023-10-30T20:48:17Z</time>
      </trkpt>
      <trkpt lat="46.55781" lon="-1.8247">
        <ele>12</ele>
        <time>2023-10-30T20:50:00Z</time>
      </trkpt>
      <trkpt lat="46.55683" lon="-1.82393">
        <ele>9</ele>
        <time>2023-10-30T20:52:29Z</time>
      </trkpt>
      <trkpt lat="46.55648" lon="-1.82318">
        <ele>9</ele>
        <time>2023-10-30T20:53:52Z</time>
      </trkpt>
      <trkpt lat="46.55573" lon="-1.82268">
        <ele>9</ele>
        <time>2023-10-30T20:55:42Z</time>
      </trkpt>
      <trkpt lat="46.55515" lon="-1.82251">
        <ele>11</ele>
        <time>2023-10-30T20:57:01Z</time>
      </trkpt>
      <trkpt lat="46.55449" lon="-1.8227">
        <ele>11</ele>
        <time>2023-10-30T20:58:31Z</time>
      </trkpt>
      <trkpt lat="46.55406" lon="-1.82234">
        <ele>10</ele>
        <time>2023-10-30T20:59:37Z</time>
      </trkpt>
      <trkpt lat="46.55356" lon="-1.82234">
        <ele>10</ele>
        <time>2023-10-30T21:00:44Z</time>
      </trkpt>
      <trkpt lat="46.55326" lon="-1.822">
        <ele>11</ele>
        <time>2023-10-30T21:01:35Z</time>
      </trkpt>
      <trkpt lat="46.55263" lon="-1.82073">
        <ele>11</ele>
        <time>2023-10-30T21:03:59Z</time>
      </trkpt>
      <trkpt lat="46.55179" lon="-1.82021">
        <ele>13</ele>
        <time>2023-10-30T21:06:00Z</time>
      </trkpt>
      <trkpt lat="46.55146" lon="-1.81925">
        <ele>14</ele>
        <time>2023-10-30T21:07:39Z</time>
      </trkpt>
      <trkpt lat="46.5521" lon="-1.81796">
        <ele>12</ele>
        <time>2023-10-30T21:10:05Z</time>
      </trkpt>
      <trkpt lat="46.55362" lon="-1.81616">
        <ele>8</ele>
        <time>2023-10-30T21:14:26Z</time>
      </trkpt>
      <trkpt lat="46.5544" lon="-1.81644">
        <ele>14</ele>
        <time>2023-10-30T21:16:14Z</time>
      </trkpt>
      <trkpt lat="46.55492" lon="-1.81627">
        <ele>15</ele>
        <time>2023-10-30T21:17:25Z</time>
      </trkpt>
      <trkpt lat="46.55582" lon="-1.815">
        <ele>14</ele>
        <time>2023-10-30T21:20:12Z</time>
      </trkpt>
      <trkpt lat="46.55674" lon="-1.81266">
        <ele>13</ele>
        <time>2023-10-30T21:24:19Z</time>
      </trkpt>
      <trkpt lat="46.55627" lon="-1.81174">
        <ele>8</ele>
        <time>2023-10-30T21:26:05Z</time>
      </trkpt>
      <trkpt lat="46.55648" lon="-1.81118">
        <ele>8</ele>
        <time>2023-10-30T21:27:03Z</time>
      </trkpt>
      <trkpt lat="46.55772" lon="-1.80882">
        <ele>6</ele>
        <time>2023-10-30T21:31:36Z</time>
      </trkpt>
      <trkpt lat="46.55846" lon="-1.80874">
        <ele>6</ele>
        <time>2023-10-30T21:33:15Z</time>
      </trkpt>
      <trkpt lat="46.55922" lon="-1.80929">
        <ele>6</ele>
        <time>2023-10-30T21:35:08Z</time>
      </trkpt>
      <trkpt lat="46.56011" lon="-1.8097">
        <ele>5</ele>
        <time>2023-10-30T21:37:13Z</time>
      </trkpt>
      <trkpt lat="46.56058" lon="-1.81009">
        <ele>5</ele>
        <time>2023-10-30T21:38:25Z</time>
      </trkpt>
      <trkpt lat="46.56125" lon="-1.8109">
        <ele>11</ele>
        <time>2023-10-30T21:40:21Z</time>
      </trkpt>
    </trkseg>
  </trk>
</gpx>